Portada
METAR-TAF:

METAR-TAF

Aeropuertos :

Aeropuerto Internacional Philip S. W. Goldson

Ciudad de Belice, Belice

latitud: 17-32N, longitud: 088-18W, altitud: 5 m

Observación

El informe se hizo hace 45 minutos, a las 19:00 UTC
Viento 4 kt del sur-sureste
Temperatura 34°C
Humedad 67%
Presión 1007 hPa
Visibilidad 10 km o más
Escasas nubes a una altura de 2700 ft

METAR: MZBZ 191900Z 16004KT 9999 FEW027 34/27 A2976 Q1007 NOSIG

Hora: 13:45 (19:45 UTC)

Pronóstico

El informe se hizo hace 4 horas y 45 minutos, a las 15:00 UTC
Pronóstico válido del 19 a las 18 UTC al 20 a las 18 UTC
Viento 6 kt del este-sureste
Visibilidad 10 km o más
Nubes dispersas a una altura de 2400 ft

TAF: MZBZ 191500Z 1918/2018 12006KT 9999 SCT024

Observaciones y pronósticos meteorológicos de más de 4000 aeropuertos (mensajes METAR y TAF).

Los puntos amarillos y rojos representan las estaciones disponibles.

Ponga el ratón en el punto deseado para ver el nombre de la estación.

Haga clic para ver las observaciones y los pronósticos meteorológicos.

Para cambiar el mapa : haga clic en los botones verdes con una cruz de color negro para hacer un zoom, en el botón verde con un guión para alejar o en las flechas verdes para mapas adyacentes.


METAR-TAF: